createdAt,value
2019-05-13T00:09:17.756Z,12.42
2019-05-13T00:19:19.345Z,12.45
2019-05-13T00:29:23.524Z,12.51
2019-05-13T00:39:25.035Z,12.54
2019-05-13T00:49:26.363Z,12.48
2019-05-13T00:59:28.194Z,12.46
2019-05-13T01:09:30.594Z,12.49
2019-05-13T01:19:34.270Z,12.43
2019-05-13T01:29:36.828Z,12.28
2019-05-13T01:39:38.504Z,12.14
2019-05-13T01:49:43.971Z,11.93
2019-05-13T01:59:46.030Z,11.91
2019-05-13T02:09:47.614Z,12.05
2019-05-13T02:19:49.161Z,12.16
2019-05-13T02:29:54.605Z,12.34
2019-05-13T02:39:56.309Z,12.31
2019-05-13T02:50:00.710Z,11.98
2019-05-13T03:00:04.190Z,11.82
2019-05-13T03:10:07.097Z,11.50
2019-05-13T03:20:13.022Z,11.06
2019-05-13T03:30:16.882Z,10.75
2019-05-13T03:40:18.203Z,10.54
2019-05-13T03:50:33.374Z,10.47
2019-05-13T04:00:32.444Z,10.42
2019-05-13T04:10:33.864Z,10.52
2019-05-13T04:20:42.148Z,10.97
2019-05-13T04:30:44.667Z,11.40
2019-05-13T04:40:48.853Z,11.50
2019-05-13T04:50:53.875Z,11.96
2019-05-13T05:01:15.595Z,12.42
2019-05-13T05:11:22.213Z,12.94
2019-05-13T05:21:47.243Z,13.18
2019-05-13T05:32:02.096Z,13.79
2019-05-13T05:42:07.542Z,13.25
2019-05-13T05:52:08.980Z,13.58
2019-05-13T06:02:12.449Z,14.01
2019-05-13T06:12:14.058Z,15.31
2019-05-13T06:22:21.614Z,17.51
2019-05-13T06:32:26.380Z,21.40
2019-05-13T06:42:27.540Z,28.82
2019-05-13T06:52:28.922Z,31.96
2019-05-13T07:02:32.033Z,34.19
2019-05-13T07:12:38.087Z,27.69
2019-05-13T07:22:42.265Z,24.25
2019-05-13T07:32:44.090Z,25.00
2019-05-13T07:42:45.887Z,24.50
2019-05-13T07:52:48.203Z,29.87
2019-05-13T08:02:52.177Z,39.92
2019-05-13T08:12:53.914Z,35.69
2019-05-13T08:23:02.618Z,39.55
2019-05-13T08:33:04.975Z,42.20
2019-05-13T08:43:15.158Z,43.74
2019-05-13T08:53:16.551Z,42.37
2019-05-13T09:03:18.368Z,42.86
2019-05-13T09:13:22.559Z,42.82
2019-05-13T09:23:31.145Z,40.50
2019-05-13T09:33:35.452Z,37.53
2019-05-13T09:43:42.374Z,38.46
2019-05-13T09:53:45.576Z,42.96
2019-05-13T10:03:56.944Z,32.23
2019-05-13T10:13:51.586Z,33.09
2019-05-13T10:23:58.538Z,33.69
2019-05-13T10:34:02.280Z,33.36
2019-05-13T10:44:04.131Z,36.65
2019-05-13T10:54:05.597Z,30.04
2019-05-13T11:04:13.478Z,24.77
2019-05-13T11:14:15.806Z,24.54
2019-05-13T11:24:17.391Z,22.17
2019-05-13T11:34:22.376Z,21.44
2019-05-13T11:44:26.064Z,20.27
2019-05-13T11:54:28.389Z,20.88
2019-05-13T12:04:33.079Z,20.38
2019-05-13T12:14:47.244Z,19.79
2019-05-13T12:24:37.926Z,20.25
2019-05-13T12:34:45.915Z,20.30
2019-05-13T12:45:04.005Z,20.66
2019-05-13T12:54:52.756Z,22.06
2019-05-13T13:05:10.600Z,21.35
2019-05-13T13:14:58.187Z,20.13
2019-05-13T13:25:04.851Z,22.78
2019-05-13T13:35:08.263Z,20.89
2019-05-13T13:45:10.294Z,21.98
2019-05-13T13:55:15.803Z,21.09
2019-05-13T14:05:16.802Z,21.12
2019-05-13T14:15:18.810Z,21.54
2019-05-13T14:25:22.357Z,23.58
2019-05-13T14:35:24.319Z,19.26
2019-05-13T14:45:28.785Z,21.06
2019-05-13T14:55:32.826Z,23.15
2019-05-13T15:05:34.511Z,21.19
2019-05-13T15:15:38.376Z,22.47
2019-05-13T15:25:42.144Z,22.50
2019-05-13T15:35:44.755Z,21.93
2019-05-13T15:45:51.152Z,21.83
2019-05-13T15:56:02.559Z,21.50
2019-05-13T16:06:04.318Z,19.87
2019-05-13T16:16:05.775Z,20.72
2019-05-13T16:26:12.513Z,20.68
2019-05-13T16:36:14.332Z,20.14
2019-05-13T16:46:15.860Z,20.86
2019-05-13T16:56:27.773Z,21.11
2019-05-13T17:06:25.636Z,19.50
2019-05-13T17:16:28.447Z,18.94
2019-05-13T17:26:32.501Z,18.26
2019-05-13T17:36:35.438Z,17.89
2019-05-13T17:46:37.398Z,17.53
2019-05-13T17:56:43.062Z,17.13
2019-05-13T18:06:44.991Z,16.67
2019-05-13T18:16:51.992Z,16.22
2019-05-13T18:26:55.519Z,15.99
2019-05-13T18:36:57.827Z,15.72
2019-05-13T18:47:01.567Z,15.21
2019-05-13T18:57:02.582Z,14.92
2019-05-13T19:07:03.905Z,14.59
2019-05-13T19:17:05.426Z,14.33
2019-05-13T19:27:06.901Z,14.03
2019-05-13T19:37:11.626Z,13.72
2019-05-13T19:47:14.344Z,13.59
2019-05-13T19:57:16.034Z,13.35
2019-05-13T20:07:17.586Z,12.98
2019-05-13T20:17:18.994Z,12.84
2019-05-13T20:27:21.023Z,12.77
2019-05-13T20:37:22.347Z,12.88
2019-05-13T20:47:23.659Z,12.76
2019-05-13T20:57:26.215Z,12.76
2019-05-13T21:07:27.863Z,12.67
2019-05-13T21:17:29.262Z,12.33
2019-05-13T21:27:31.537Z,12.15
2019-05-13T21:37:33.025Z,11.84
2019-05-13T21:47:34.768Z,11.78
2019-05-13T21:57:36.359Z,11.45
2019-05-13T22:07:37.798Z,11.26
2019-05-13T22:17:39.575Z,11.20
2019-05-13T22:27:41.344Z,10.90
2019-05-13T22:37:42.835Z,10.69
2019-05-13T22:47:44.328Z,10.56
2019-05-13T22:57:45.701Z,10.60
2019-05-13T23:07:47.117Z,10.51
2019-05-13T23:17:48.684Z,10.32
2019-05-13T23:27:51.287Z,10.31
2019-05-13T23:37:52.674Z,10.20
2019-05-13T23:47:54.016Z,10.05
2019-05-13T23:57:55.297Z,9.78
